Time;durP1;ratioP1;P1;durP2;ratioP2;P2;SDS_P1;SDS_P2;PMS_P1;PMS_P2;Temp;Humidity;BMP_temperature;BMP_pressure;BME280_temperature;BME280_humidity;BME280_pressure;Samples;Min_cycle;Max_cycle;Signal;HPM_P1;HPM_P2
2023/05/11 00:01:07;;;;;;;23.38;7.70;;;;;;;11.78;51.96;99872.00;7345098;19;20006;-69
2023/05/11 00:03:34;;;;;;;19.58;7.03;;;;;;;11.77;52.55;99872.09;7344593;19;20027;-68
2023/05/11 00:05:59;;;;;;;26.75;8.25;;;;;;;11.68;52.34;99860.25;7350038;19;20011;-70
2023/05/11 00:08:24;;;;;;;13.60;6.53;;;;;;;11.69;52.10;99871.78;7341383;19;20018;-68
2023/05/11 00:10:49;;;;;;;20.48;6.60;;;;;;;11.66;52.37;99864.84;7342778;19;20009;-72
2023/05/11 00:13:16;;;;;;;16.85;6.18;;;;;;;11.64;52.43;99859.59;7343684;19;20025;-71
2023/05/11 00:15:42;;;;;;;21.58;7.43;;;;;;;11.67;52.71;99865.69;7342164;19;20034;-69
2023/05/11 00:18:07;;;;;;;19.77;8.43;;;;;;;11.66;51.04;99867.50;7343127;19;20086;-70
2023/05/11 00:20:32;;;;;;;15.02;7.72;;;;;;;11.63;50.50;99863.25;7343106;19;20019;-71
2023/05/11 00:22:58;;;;;;;24.95;7.40;;;;;;;11.62;50.54;99866.88;7343484;19;20115;-69
2023/05/11 00:25:23;;;;;;;23.10;6.30;;;;;;;11.64;50.64;99874.78;7346844;19;20018;-70
2023/05/11 00:27:48;;;;;;;25.35;8.63;;;;;;;11.61;50.36;99867.00;7341528;19;20494;-68
2023/05/11 00:30:14;;;;;;;19.70;8.32;;;;;;;11.62;49.92;99866.88;7340092;19;20470;-78
2023/05/11 00:32:39;;;;;;;23.80;8.52;;;;;;;11.61;49.66;99867.00;7343395;19;20353;-68
2023/05/11 00:35:05;;;;;;;20.08;8.10;;;;;;;11.62;49.87;99863.38;7341262;19;20087;-69
2023/05/11 00:37:29;;;;;;;20.95;7.80;;;;;;;11.59;49.47;99864.44;7346047;19;20013;-74
2023/05/11 00:39:54;;;;;;;20.85;8.55;;;;;;;11.59;49.49;99855.56;7342482;19;20010;-69
2023/05/11 00:42:22;;;;;;;40.13;8.38;;;;;;;11.60;49.31;99868.81;7340412;19;20019;-65
2023/05/11 00:44:47;;;;;;;32.40;8.65;;;;;;;11.61;49.62;99859.84;7341569;19;20790;-70
2023/05/11 00:47:12;;;;;;;27.90;8.20;;;;;;;11.62;49.85;99868.72;7345011;19;20478;-68
2023/05/11 00:49:42;;;;;;;23.50;7.95;;;;;;;11.61;50.02;99869.69;7343234;19;20523;-66
2023/05/11 00:52:07;;;;;;;29.88;9.93;;;;;;;11.61;50.37;99867.00;7345414;19;20018;-71
2023/05/11 00:54:32;;;;;;;22.58;8.23;;;;;;;11.62;50.97;99866.03;7346361;19;20014;-65
2023/05/11 00:56:57;;;;;;;20.58;7.57;;;;;;;11.62;51.36;99866.03;7348134;19;20025;-67
2023/05/11 00:59:24;;;;;;;21.92;8.18;;;;;;;11.63;51.81;99873.06;7340492;19;20018;-67
2023/05/11 01:01:49;;;;;;;26.77;7.70;;;;;;;11.59;51.62;99866.25;7345828;19;20644;-66
2023/05/11 01:04:15;;;;;;;22.67;7.63;;;;;;;11.61;51.84;99867.00;7341980;19;20015;-67
2023/05/11 01:07:05;;;;;;;18.88;8.02;;;;;;;11.64;52.55;99880.97;7344479;19;20118;-68
2023/05/11 01:09:58;;;;;;;17.73;7.03;;;;;;;11.69;52.65;99867.28;7339140;19;20022;-68
2023/05/11 01:12:26;;;;;;;15.43;7.50;;;;;;;11.63;53.08;99873.91;7342014;19;20010;-68
2023/05/11 01:15:13;;;;;;;24.67;7.15;;;;;;;11.69;52.78;99877.97;7339803;19;20012;-68
2023/05/11 01:18:28;;;;;;;16.88;7.28;;;;;;;11.65;53.30;99887.16;7342006;19;20457;-74
2023/05/11 01:21:01;;;;;;;30.90;7.63;;;;;;;11.58;53.89;99880.56;7336850;19;20039;-71
2023/05/11 01:23:43;;;;;;;25.50;7.78;;;;;;;11.61;54.11;99881.22;7339727;19;20014;-72
2023/05/11 01:26:36;;;;;;;18.73;7.65;;;;;;;11.62;54.04;99876.72;7339659;19;20011;-72
2023/05/11 01:29:12;;;;;;;15.55;7.32;;;;;;;11.58;54.84;99875.22;7338199;19;20018;-65
2023/05/11 01:31:41;;;;;;;26.02;8.23;;;;;;;11.53;54.50;99872.03;7338390;19;20486;-66
2023/05/11 01:34:13;;;;;;;22.40;8.57;;;;;;;11.53;54.45;99878.22;7336038;19;20010;-76
2023/05/11 01:36:47;;;;;;;17.73;6.88;;;;;;;11.49;54.36;99883.91;7336847;19;20007;-76
2023/05/11 01:39:15;;;;;;;26.80;8.27;;;;;;;11.44;55.30;99889.56;7338479;19;20382;-75
2023/05/11 01:41:44;;;;;;;20.75;7.72;;;;;;;11.40;55.56;99892.56;7339732;19;20094;-70
2023/05/11 01:44:10;;;;;;;25.20;7.55;;;;;;;11.39;55.32;99889.03;7342542;19;20027;-67
2023/05/11 01:46:35;;;;;;;20.98;8.23;;;;;;;11.39;56.22;99893.53;7342770;19;20018;-70
2023/05/11 01:49:08;;;;;;;14.45;6.68;;;;;;;11.41;55.47;99894.25;7347164;19;20017;-74
2023/05/11 01:51:40;;;;;;;21.55;8.10;;;;;;;11.35;54.09;99879.53;7343714;19;20018;-67
2023/05/11 01:54:07;;;;;;;35.97;9.52;;;;;;;11.32;52.81;99873.56;7344287;19;20025;-66
2023/05/11 01:56:34;;;;;;;18.48;8.18;;;;;;;11.28;53.99;99878.28;7359163;19;20027;-70
2023/05/11 01:59:00;;;;;;;20.75;7.43;;;;;;;11.27;54.51;99872.09;7349634;19;20019;-71
2023/05/11 02:01:26;;;;;;;16.02;7.43;;;;;;;11.31;55.06;99878.03;7344096;19;20462;-72
2023/05/11 02:03:52;;;;;;;23.75;8.20;;;;;;;11.31;55.35;99872.69;7345581;19;20088;-74
2023/05/11 02:06:20;;;;;;;24.45;7.10;;;;;;;11.33;56.17;99875.25;7350269;19;20044;-69
2023/05/11 02:08:47;;;;;;;24.23;8.45;;;;;;;11.34;56.08;99877.81;7347152;19;20083;-71
2023/05/11 02:11:14;;;;;;;18.73;7.28;;;;;;;11.35;56.34;99873.34;7349820;19;20039;-70
2023/05/11 02:13:42;;;;;;;33.45;8.68;;;;;;;11.36;56.39;99875.06;7346516;19;20338;-69
2023/05/11 02:16:09;;;;;;;20.02;7.47;;;;;;;11.36;56.32;99875.06;7345938;19;20022;-69
2023/05/11 02:18:36;;;;;;;21.88;7.85;;;;;;;11.33;56.41;99869.94;7347362;19;20019;-70
2023/05/11 02:21:02;;;;;;;23.75;8.18;;;;;;;11.36;56.92;99877.72;7343450;19;20014;-71
2023/05/11 02:23:31;;;;;;;23.63;8.35;;;;;;;11.40;57.04;99873.88;7347930;19;20018;-71
2023/05/11 02:25:57;;;;;;;24.98;8.00;;;;;;;11.39;57.01;99873.03;7343057;19;20547;-68
2023/05/11 02:28:22;;;;;;;29.17;8.50;;;;;;;11.41;57.58;99872.91;7343155;19;20038;-67
2023/05/11 02:30:51;;;;;;;19.35;8.15;;;;;;;11.42;57.76;99878.13;7342392;19;20007;-68
2023/05/11 02:33:24;;;;;;;24.55;8.77;;;;;;;11.46;57.76;99876.09;7342485;19;20857;-70
2023/05/11 02:35:50;;;;;;;22.08;7.63;;;;;;;11.44;57.29;99880.69;7341483;19;20430;-71
2023/05/11 02:38:17;;;;;;;15.23;6.90;;;;;;;11.46;57.89;99886.78;7344896;19;20014;-70
2023/05/11 02:40:47;;;;;;;22.45;8.55;;;;;;;11.50;58.12;99888.28;7342483;19;20007;-70
2023/05/11 02:43:20;;;;;;;27.15;8.98;;;;;;;11.55;57.57;99886.13;7342597;19;20018;-67
2023/05/11 02:45:57;;;;;;;17.27;7.88;;;;;;;11.58;57.90;99885.91;7342969;19;20508;-67
2023/05/11 02:48:33;;;;;;;16.65;8.35;;;;;;;11.65;57.43;99893.34;7341966;19;20014;-70
2023/05/11 02:51:01;;;;;;;20.83;8.45;;;;;;;11.61;57.70;99893.72;7346035;19;20010;-69
2023/05/11 02:53:33;;;;;;;19.38;8.13;;;;;;;11.62;57.37;99893.56;7342531;19;20018;-69
2023/05/11 02:55:59;;;;;;;20.02;8.82;;;;;;;11.65;58.09;99892.50;7343275;19;20014;-70
2023/05/11 02:58:28;;;;;;;21.25;8.65;;;;;;;11.70;58.27;99887.69;7347493;19;20014;-67
2023/05/11 03:01:06;;;;;;;24.05;8.63;;;;;;;11.74;55.42;99894.50;7346064;19;20042;-76
2023/05/11 03:03:32;;;;;;;22.00;8.85;;;;;;;11.83;57.05;99898.38;7346349;19;20014;-75
2023/05/11 03:05:58;;;;;;;19.40;8.70;;;;;;;11.90;57.58;99902.31;7344156;19;20342;-73
2023/05/11 03:08:26;;;;;;;22.60;8.38;;;;;;;11.94;57.94;99893.13;7350355;19;20373;-76
2023/05/11 03:10:52;;;;;;;18.13;7.68;;;;;;;11.99;57.82;99898.97;7346475;19;20010;-76
2023/05/11 03:13:19;;;;;;;21.00;9.73;;;;;;;12.05;58.30;99901.19;7349909;19;20014;-77
2023/05/11 03:15:47;;;;;;;21.25;8.20;;;;;;;12.09;57.72;99899.13;7345643;19;20446;-77
2023/05/11 03:18:12;;;;;;;26.73;8.07;;;;;;;12.19;57.88;99894.84;7347268;19;20338;-76
2023/05/11 03:20:40;;;;;;;24.65;9.15;;;;;;;12.26;57.67;99894.25;7344957;19;20010;-75
2023/05/11 03:23:06;;;;;;;22.35;7.88;;;;;;;12.29;56.97;99901.22;7346874;19;20026;-74
2023/05/11 03:25:31;;;;;;;17.70;8.45;;;;;;;12.32;56.88;99895.59;7341771;19;20025;-72
2023/05/11 03:27:59;;;;;;;28.40;9.02;;;;;;;12.39;56.70;99906.72;7343851;19;20014;-73
2023/05/11 03:30:26;;;;;;;21.63;8.60;;;;;;;12.39;55.97;99896.88;7344019;19;20010;-73
2023/05/11 03:32:53;;;;;;;23.42;8.02;;;;;;;12.42;56.40;99903.78;7345538;19;20020;-73
2023/05/11 03:35:20;;;;;;;24.58;9.48;;;;;;;12.45;57.22;99907.09;7340242;19;20010;-73
2023/05/11 03:37:47;;;;;;;25.17;8.45;;;;;;;12.51;57.45;99909.31;7344466;19;20034;-75
2023/05/11 03:40:16;;;;;;;23.63;8.35;;;;;;;12.54;57.47;99905.53;7344373;19;20019;-74
2023/05/11 03:42:47;;;;;;;20.30;8.50;;;;;;;12.61;56.97;99912.16;7344962;19;20082;-75
2023/05/11 03:45:17;;;;;;;22.63;8.73;;;;;;;12.65;56.71;99918.97;7344634;19;20036;-75
2023/05/11 03:47:42;;;;;;;22.08;8.45;;;;;;;12.71;57.22;99916.69;7348785;19;20033;-75
2023/05/11 03:50:09;;;;;;;28.92;9.52;;;;;;;12.79;57.16;99912.56;7347687;19;20032;-75
2023/05/11 03:52:35;;;;;;;34.28;9.43;;;;;;;12.84;56.71;99910.41;7345607;19;20082;-76
2023/05/11 03:55:00;;;;;;;15.88;8.10;;;;;;;12.94;56.72;99914.94;7344144;19;20078;-76
2023/05/11 03:57:28;;;;;;;30.40;8.75;;;;;;;13.07;55.71;99917.53;7344993;19;20029;-76
2023/05/11 03:59:53;;;;;;;19.73;9.45;;;;;;;13.17;55.04;99915.88;7343255;19;20047;-77
2023/05/11 04:02:18;;;;;;;28.80;10.50;;;;;;;13.28;54.79;99923.06;7343963;19;20418;-74
2023/05/11 04:04:43;;;;;;;25.75;8.32;;;;;;;13.39;53.39;99913.22;7341023;19;20368;-75
2023/05/11 04:07:08;;;;;;;21.17;9.70;;;;;;;13.54;51.92;99918.34;7340997;19;20014;-71
2023/05/11 04:09:33;;;;;;;22.02;8.35;;;;;;;13.63;51.24;99915.78;7340873;19;20018;-73
2023/05/11 04:11:58;;;;;;;29.25;10.48;;;;;;;13.73;50.37;99919.44;7342025;19;20049;-72
2023/05/11 04:14:22;;;;;;;23.92;8.38;;;;;;;13.82;50.63;99923.19;7341781;19;20469;-75
2023/05/11 04:16:47;;;;;;;21.67;8.70;;;;;;;13.90;51.19;99920.72;7337938;19;20461;-72
2023/05/11 04:19:13;;;;;;;26.30;9.38;;;;;;;13.99;50.53;99921.84;7341551;19;20045;-72
2023/05/11 04:21:37;;;;;;;19.77;10.05;;;;;;;14.06;49.45;99928.41;7339450;19;20022;-73
2023/05/11 04:24:02;;;;;;;25.15;10.10;;;;;;;14.12;48.94;99928.72;7340661;19;20070;-73
2023/05/11 04:26:27;;;;;;;19.65;8.82;;;;;;;14.21;48.99;99927.16;7339634;19;20345;-71
2023/05/11 04:28:52;;;;;;;37.05;10.40;;;;;;;14.32;48.70;99929.81;7343309;19;20015;-71
2023/05/11 04:31:17;;;;;;;32.85;9.95;;;;;;;14.44;48.39;99922.59;7340465;19;20007;-73
2023/05/11 04:33:42;;;;;;;28.02;9.80;;;;;;;14.55;48.08;99924.41;7338793;19;20017;-75
2023/05/11 04:36:07;;;;;;;43.67;10.73;;;;;;;14.64;48.31;99927.16;7338090;19;20695;-75
2023/05/11 04:38:31;;;;;;;31.92;9.63;;;;;;;14.73;48.22;99931.75;7339736;19;20338;-75
2023/05/11 04:40:56;;;;;;;27.42;10.38;;;;;;;14.79;47.80;99925.00;7338535;19;20030;-73
2023/05/11 04:43:21;;;;;;;23.50;9.38;;;;;;;14.85;47.64;99928.03;7338273;19;20014;-72
2023/05/11 04:45:48;;;;;;;17.27;7.55;;;;;;;14.88;46.93;99930.47;7338622;19;20019;-77
2023/05/11 04:48:14;;;;;;;20.95;7.75;;;;;;;14.90;46.04;99930.31;7339726;19;20267;-76
2023/05/11 04:50:39;;;;;;;23.40;7.68;;;;;;;15.00;45.37;99933.09;7338497;19;20033;-75
2023/05/11 04:53:04;;;;;;;15.30;7.55;;;;;;;15.09;45.02;99929.63;7340842;19;20012;-75
2023/05/11 04:55:29;;;;;;;23.00;8.23;;;;;;;15.22;43.95;99920.38;7337778;19;20010;-75
2023/05/11 04:57:54;;;;;;;13.38;6.85;;;;;;;15.43;43.24;99920.34;7338360;19;20032;-76
2023/05/11 05:00:20;;;;;;;12.55;6.45;;;;;;;15.70;42.73;99929.66;7338849;19;20015;-75
2023/05/11 05:02:46;;;;;;;20.00;6.32;;;;;;;15.84;41.94;99921.25;7338230;19;20042;-73
2023/05/11 05:05:10;;;;;;;25.42;7.50;;;;;;;15.90;41.63;99923.41;7339866;19;20026;-73
2023/05/11 05:07:35;;;;;;;10.05;5.82;;;;;;;15.85;41.42;99922.94;7339939;19;20014;-71
2023/05/11 05:10:00;;;;;;;28.08;5.95;;;;;;;15.76;41.53;99915.72;7340137;19;20311;-72
2023/05/11 05:12:25;;;;;;;18.23;6.05;;;;;;;15.67;41.88;99924.59;7337838;19;20052;-73
2023/05/11 05:14:50;;;;;;;11.15;6.38;;;;;;;15.63;41.93;99918.63;7339361;19;20015;-72
2023/05/11 05:17:14;;;;;;;14.63;6.90;;;;;;;15.68;41.96;99921.78;7342079;19;20018;-73
2023/05/11 05:19:39;;;;;;;10.07;5.15;;;;;;;15.92;41.85;99918.72;7346441;19;20018;-70
2023/05/11 05:22:04;;;;;;;21.40;6.30;;;;;;;16.31;41.89;99922.38;7348067;19;20638;-71
2023/05/11 05:24:30;;;;;;;11.05;6.20;;;;;;;16.86;40.31;99914.63;7346763;19;20102;-73
2023/05/11 05:26:55;;;;;;;10.38;5.78;;;;;;;17.68;38.90;99922.97;7346806;19;20026;-73
2023/05/11 05:29:19;;;;;;;14.07;6.22;;;;;;;18.25;37.38;99911.03;7348835;19;20045;-70
2023/05/11 05:31:44;;;;;;;18.00;7.00;;;;;;;18.61;36.97;99911.09;7347592;19;20022;-72
2023/05/11 05:34:10;;;;;;;23.40;6.63;;;;;;;19.35;36.16;99905.25;7345306;19;20053;-72
2023/05/11 05:36:35;;;;;;;22.58;6.63;;;;;;;20.55;34.96;99911.38;7342508;19;20015;-74
2023/05/11 05:39:02;;;;;;;13.50;6.13;;;;;;;21.38;33.50;99906.66;7349578;19;20085;-73
2023/05/11 05:41:27;;;;;;;10.63;5.20;;;;;;;21.95;31.42;99901.06;7351129;19;20042;-73
2023/05/11 05:43:52;;;;;;;15.00;5.80;;;;;;;22.41;30.49;99907.47;7348282;19;20018;-73
2023/05/11 05:46:17;;;;;;;12.43;5.18;;;;;;;21.95;30.78;99896.47;7351836;19;20081;-72
2023/05/11 05:48:42;;;;;;;11.57;5.60;;;;;;;22.43;30.39;99900.00;7351056;19;20039;-74
2023/05/11 05:51:07;;;;;;;9.60;4.85;;;;;;;22.21;30.71;99900.81;7351188;19;20366;-73
2023/05/11 05:53:32;;;;;;;9.27;4.55;;;;;;;21.87;30.39;99901.94;7345761;19;20354;-73
2023/05/11 05:55:57;;;;;;;11.40;4.63;;;;;;;22.07;30.56;99894.25;7346934;19;20697;-72
2023/05/11 05:58:22;;;;;;;14.82;5.05;;;;;;;22.65;30.23;99906.47;7346353;19;20035;-73
2023/05/11 06:00:48;;;;;;;12.02;4.68;;;;;;;23.51;28.97;99896.06;7345363;19;20537;-72
2023/05/11 06:03:12;;;;;;;8.95;4.53;;;;;;;23.49;28.83;99892.63;7349695;19;20434;-79
2023/05/11 06:05:37;;;;;;;11.52;4.65;;;;;;;23.13;28.73;99899.84;7347680;19;20467;-71
2023/05/11 06:08:02;;;;;;;13.50;4.57;;;;;;;22.51;28.84;99907.25;7346020;19;20038;-73
2023/05/11 06:10:27;;;;;;;12.52;4.40;;;;;;;22.48;29.08;99907.59;7344490;19;20010;-74
2023/05/11 06:12:52;;;;;;;10.40;4.30;;;;;;;22.33;28.83;99910.25;7349573;19;20006;-73
2023/05/11 06:15:17;;;;;;;7.93;3.78;;;;;;;21.85;29.50;99908.56;7342856;19;20023;-72
2023/05/11 06:17:47;;;;;;;7.05;4.03;;;;;;;21.18;29.91;99919.75;7343840;19;20026;-71
2023/05/11 06:20:12;;;;;;;8.90;4.18;;;;;;;20.92;30.53;99919.88;7344958;19;20006;-71
2023/05/11 06:22:38;;;;;;;8.98;4.88;;;;;;;22.12;29.33;99910.03;7343466;19;20073;-74
2023/05/11 06:25:03;;;;;;;9.55;5.18;;;;;;;23.53;27.71;99921.22;7345320;19;20022;-74
2023/05/11 06:27:30;;;;;;;11.98;4.38;;;;;;;24.13;26.73;99913.88;7341818;19;20023;-73
2023/05/11 06:29:56;;;;;;;10.13;4.28;;;;;;;23.75;27.00;99924.03;7341905;19;20030;-72
2023/05/11 06:32:22;;;;;;;9.27;4.85;;;;;;;22.88;27.66;99920.94;7343189;19;20053;-73
2023/05/11 06:34:47;;;;;;;10.05;4.00;;;;;;;22.31;28.23;99924.00;7344736;19;20014;-74
2023/05/11 06:37:19;;;;;;;12.07;4.35;;;;;;;21.95;28.55;99926.34;7347048;19;20019;-75
2023/05/11 06:39:47;;;;;;;9.55;5.00;;;;;;;21.66;28.92;99929.66;7342681;19;20018;-73
2023/05/11 06:42:12;;;;;;;12.43;5.15;;;;;;;21.28;29.32;99925.84;7342720;19;20035;-73
2023/05/11 06:44:38;;;;;;;5.53;3.85;;;;;;;21.03;29.45;99924.97;7344063;19;20018;-74
2023/05/11 06:47:03;;;;;;;9.90;3.95;;;;;;;20.97;29.63;99930.22;7344061;19;20022;-74
2023/05/11 06:49:28;;;;;;;7.47;3.58;;;;;;;21.31;29.25;99921.94;7345462;19;20470;-74
2023/05/11 06:51:52;;;;;;;9.30;3.55;;;;;;;22.00;27.80;99915.84;7342862;19;20010;-74
2023/05/11 06:54:20;;;;;;;7.85;3.88;;;;;;;23.01;26.84;99920.34;7347472;19;20018;-76
2023/05/11 06:56:44;;;;;;;10.27;4.05;;;;;;;24.23;25.66;99917.19;7347697;19;20017;-73
2023/05/11 06:59:10;;;;;;;8.65;4.03;;;;;;;25.20;24.63;99912.13;7346483;19;20027;-73
2023/05/11 07:01:34;;;;;;;9.07;3.38;;;;;;;26.76;22.92;99904.13;7344624;19;20006;-74
2023/05/11 07:03:59;;;;;;;7.22;4.00;;;;;;;28.24;22.08;99906.34;7345929;19;20022;-76
2023/05/11 07:06:24;;;;;;;7.95;4.40;;;;;;;28.97;20.98;99911.44;7353715;19;20025;-79
2023/05/11 07:08:49;;;;;;;8.40;3.95;;;;;;;28.87;20.55;99909.19;7347475;19;20013;-82
2023/05/11 07:11:14;;;;;;;5.80;3.58;;;;;;;28.70;21.25;99905.25;7349094;19;20018;-78
2023/05/11 07:13:39;;;;;;;8.52;4.40;;;;;;;28.76;21.93;99915.38;7348580;19;20015;-77
2023/05/11 07:16:03;;;;;;;9.82;4.43;;;;;;;29.08;21.31;99914.31;7348367;19;20032;-76
2023/05/11 07:18:28;;;;;;;8.55;4.25;;;;;;;29.39;21.38;99905.22;7345264;19;20347;-74
2023/05/11 07:20:53;;;;;;;7.75;4.40;;;;;;;29.62;21.74;99907.31;7345163;19;20026;-76
2023/05/11 07:23:17;;;;;;;6.15;4.22;;;;;;;29.65;21.59;99904.13;7346714;19;20347;-76
2023/05/11 07:25:42;;;;;;;8.55;4.20;;;;;;;29.59;21.04;99905.84;7345487;19;20501;-74
2023/05/11 07:28:07;;;;;;;6.88;3.92;;;;;;;29.52;20.71;99904.25;7342115;19;20386;-73
2023/05/11 07:30:32;;;;;;;7.00;4.00;;;;;;;29.39;21.49;99898.88;7343106;19;20037;-74
2023/05/11 07:32:56;;;;;;;9.57;4.15;;;;;;;29.17;21.78;99906.63;7342913;19;20018;-73
2023/05/11 07:35:21;;;;;;;12.50;5.15;;;;;;;28.48;21.57;99908.34;7342388;19;20331;-74
2023/05/11 07:37:46;;;;;;;10.75;4.75;;;;;;;27.79;21.93;99903.53;7345055;19;20040;-77
2023/05/11 07:40:18;;;;;;;10.43;5.00;;;;;;;27.37;22.76;99912.19;7341824;19;20020;-76
2023/05/11 07:42:44;;;;;;;15.75;4.80;;;;;;;26.86;22.93;99903.75;7343802;19;20010;-75
2023/05/11 07:45:09;;;;;;;7.90;4.07;;;;;;;27.43;22.64;99901.22;7341893;19;20018;-76
2023/05/11 07:47:33;;;;;;;7.60;4.85;;;;;;;28.06;21.70;99897.97;7343143;19;20399;-77
2023/05/11 07:49:58;;;;;;;9.13;4.30;;;;;;;29.09;21.27;99895.94;7343481;19;20397;-76
2023/05/11 07:52:23;;;;;;;8.82;4.07;;;;;;;30.55;20.35;99898.84;7343333;19;20029;-77
2023/05/11 07:54:47;;;;;;;11.95;5.03;;;;;;;32.16;19.17;99897.59;7343297;19;20019;-76
2023/05/11 07:57:12;;;;;;;6.68;4.38;;;;;;;33.54;18.17;99897.97;7343976;19;20094;-75
2023/05/11 07:59:38;;;;;;;6.93;4.95;;;;;;;34.67;17.37;99895.59;7343349;19;20015;-76
2023/05/11 08:02:07;;;;;;;6.47;5.03;;;;;;;35.13;16.61;99890.50;7346281;19;20024;-77
2023/05/11 08:04:31;;;;;;;5.95;4.38;;;;;;;35.18;17.16;99883.09;7341242;19;20018;-77
2023/05/11 08:06:57;;;;;;;8.68;5.38;;;;;;;36.43;16.62;99880.53;7343222;19;20007;-76
2023/05/11 08:09:22;;;;;;;11.25;5.50;;;;;;;38.21;15.85;99880.50;7341628;19;20338;-77
2023/05/11 08:11:46;;;;;;;7.50;5.53;;;;;;;39.91;14.44;99990.34;7341741;19;20011;-76
2023/05/11 08:14:12;;;;;;;6.60;5.47;;;;;;;39.83;14.40;100002.97;7343656;19;20501;-79
2023/05/11 08:16:37;;;;;;;5.63;5.05;;;;;;;37.13;14.47;100006.88;7341770;19;20098;-76
2023/05/11 08:19:02;;;;;;;11.80;4.88;;;;;;;33.84;16.00;99880.19;7343965;19;20488;-78
2023/05/11 08:21:26;;;;;;;10.63;4.47;;;;;;;30.81;18.06;99879.22;7342424;19;20457;-79
2023/05/11 08:23:51;;;;;;;8.63;5.05;;;;;;;29.96;19.33;99878.44;7344890;19;20462;-78
2023/05/11 08:26:16;;;;;;;7.60;4.78;;;;;;;30.91;19.04;99875.88;7344820;19;20462;-79
2023/05/11 08:28:40;;;;;;;9.75;5.00;;;;;;;32.28;18.03;99876.34;7343202;19;20006;-77
2023/05/11 08:31:06;;;;;;;4.55;4.03;;;;;;;32.06;18.19;99874.19;7342152;19;20039;-77
2023/05/11 08:33:30;;;;;;;7.20;4.47;;;;;;;30.81;18.55;99881.13;7341928;19;20026;-74
2023/05/11 08:35:55;;;;;;;6.20;4.38;;;;;;;29.09;19.48;99883.06;7338880;19;20010;-71
2023/05/11 08:38:20;;;;;;;6.40;4.10;;;;;;;27.66;21.03;99880.78;7340613;19;20453;-73
2023/05/11 08:40:47;;;;;;;6.93;3.90;;;;;;;27.33;21.55;99876.19;7342518;19;20331;-73
2023/05/11 08:43:15;;;;;;;8.10;4.35;;;;;;;27.73;21.58;99881.63;7339732;19;20022;-74
2023/05/11 08:45:47;;;;;;;6.25;3.97;;;;;;;27.51;21.43;99871.97;7339984;19;20018;-74
2023/05/11 08:48:14;;;;;;;9.75;3.67;;;;;;;26.34;22.00;99862.41;7341185;19;20022;-74
2023/05/11 08:50:39;;;;;;;5.13;3.78;;;;;;;25.32;23.23;99858.69;7340193;19;20019;-72
2023/05/11 08:53:04;;;;;;;9.80;4.50;;;;;;;24.36;24.23;99876.47;7347836;19;20011;-73
2023/05/11 08:55:30;;;;;;;7.70;4.40;;;;;;;23.59;24.58;99867.06;7348339;19;20026;-74
2023/05/11 08:57:57;;;;;;;9.13;3.78;;;;;;;22.63;25.54;99873.19;7347788;19;20014;-72
2023/05/11 09:00:24;;;;;;;6.32;4.82;;;;;;;23.14;25.27;99866.13;7347793;19;20037;-72
2023/05/11 09:02:50;;;;;;;12.77;4.53;;;;;;;24.90;23.60;99857.72;7348925;19;20584;-73
2023/05/11 09:05:15;;;;;;;6.07;3.50;;;;;;;27.02;21.88;99856.84;7349421;19;20025;-73
2023/05/11 09:07:42;;;;;;;7.03;3.80;;;;;;;28.99;20.45;99840.72;7347200;19;20022;-73
2023/05/11 09:10:07;;;;;;;6.13;3.78;;;;;;;31.22;19.21;99844.44;7346583;19;20458;-72
2023/05/11 09:12:32;;;;;;;5.82;4.13;;;;;;;32.34;17.61;99848.59;7350963;19;20052;-72
2023/05/11 09:14:57;;;;;;;6.82;4.22;;;;;;;30.78;18.43;99834.78;7350982;19;20018;-72
2023/05/11 09:17:24;;;;;;;6.85;4.75;;;;;;;28.92;19.79;99840.75;7346113;19;20025;-71
2023/05/11 09:19:58;;;;;;;4.43;4.03;;;;;;;27.04;21.32;99847.38;7345770;19;20043;-70
2023/05/11 09:22:23;;;;;;;6.90;3.58;;;;;;;25.22;23.07;99848.13;7349087;19;20017;-74
2023/05/11 09:24:48;;;;;;;4.45;3.88;;;;;;;25.86;22.84;99845.16;7346725;19;20370;-73
2023/05/11 09:27:13;;;;;;;5.00;3.85;;;;;;;28.72;21.23;99840.03;7345852;19;20034;-73
2023/05/11 09:29:40;;;;;;;4.43;3.90;;;;;;;31.45;18.82;99835.34;7349119;19;20015;-73
2023/05/11 09:32:06;;;;;;;8.77;3.90;;;;;;;33.52;17.56;99825.50;7348287;19;20015;-73
2023/05/11 09:34:31;;;;;;;6.22;4.32;;;;;;;33.96;17.44;99821.97;7347114;19;20017;-74
2023/05/11 09:36:56;;;;;;;9.48;4.47;;;;;;;35.37;16.91;99825.31;7345444;19;20014;-76
2023/05/11 09:39:29;;;;;;;14.80;5.53;;;;;;;36.21;16.72;99828.00;7347614;19;20019;-73
2023/05/11 09:42:20;;;;;;;9.52;4.28;;;;;;;35.66;16.86;99825.78;7348021;19;20010;-74
2023/05/11 09:44:45;;;;;;;8.73;4.75;;;;;;;33.10;18.10;99830.63;7346232;19;20353;-74
2023/05/11 09:47:13;;;;;;;5.63;3.50;;;;;;;31.54;19.54;99828.38;7344945;19;20011;-74
2023/05/11 09:49:42;;;;;;;4.47;4.07;;;;;;;30.15;19.89;99819.59;7348360;19;20025;-73
2023/05/11 09:52:06;;;;;;;6.70;3.83;;;;;;;28.90;21.08;99818.16;7345351;19;20018;-72
2023/05/11 09:54:40;;;;;;;11.02;4.25;;;;;;;28.10;22.23;99817.00;7345539;19;20015;-73
2023/05/11 09:57:05;;;;;;;8.63;4.20;;;;;;;26.70;23.00;99817.44;7347795;19;20018;-73
2023/05/11 09:59:38;;;;;;;9.07;3.55;;;;;;;26.22;24.48;99828.47;7347664;19;20016;-72
2023/05/11 10:02:23;;;;;;;10.80;4.17;;;;;;;25.70;25.14;99822.81;7344900;19;20360;-75
2023/05/11 10:04:50;;;;;;;7.13;4.18;;;;;;;24.46;25.98;99825.22;7344419;19;20010;-75
2023/05/11 10:07:31;;;;;;;7.55;3.70;;;;;;;24.17;25.88;99826.13;7345616;19;20021;-74
2023/05/11 10:10:02;;;;;;;5.72;3.20;;;;;;;23.16;26.97;99826.84;7346659;19;20018;-73
2023/05/11 10:12:32;;;;;;;11.07;3.47;;;;;;;22.32;27.80;99832.50;7345885;19;20023;-71
2023/05/11 10:15:02;;;;;;;12.35;3.17;;;;;;;21.82;28.49;99831.06;7345035;19;20482;-72
2023/05/11 10:17:34;;;;;;;6.43;3.25;;;;;;;21.14;29.66;99833.47;7344021;19;20022;-73
2023/05/11 10:20:00;;;;;;;8.40;3.60;;;;;;;20.71;30.35;99834.69;7345166;19;20014;-73
2023/05/11 10:22:27;;;;;;;5.93;3.58;;;;;;;20.37;30.82;99846.53;7344247;19;20018;-78
2023/05/11 10:24:53;;;;;;;11.32;3.70;;;;;;;20.00;31.66;99851.47;7346513;19;20017;-76
2023/05/11 10:27:17;;;;;;;6.18;4.00;;;;;;;19.42;34.65;99882.81;7347083;19;20022;-78
2023/05/11 10:29:43;;;;;;;9.85;2.92;;;;;;;18.98;35.78;99913.59;7345343;19;20026;-79
2023/05/11 10:32:09;;;;;;;8.13;3.10;;;;;;;17.91;38.41;99910.81;7346548;19;20015;-78
2023/05/11 10:34:35;;;;;;;4.97;2.30;;;;;;;17.10;41.56;99928.50;7345109;19;20010;-79
2023/05/11 10:37:01;;;;;;;5.63;2.15;;;;;;;16.37;42.31;99931.69;7343121;19;20110;-76
2023/05/11 10:39:30;;;;;;;3.47;2.38;;;;;;;15.10;48.26;99878.47;7345946;19;20024;-77
2023/05/11 10:42:24;;;;;;;3.88;2.83;;;;;;;13.49;52.77;99870.47;7348034;19;20018;-77
2023/05/11 10:45:08;;;;;;;5.30;2.88;;;;;;;12.79;54.61;99880.47;7343934;19;20022;-75
2023/05/11 10:48:05;;;;;;;4.47;2.70;;;;;;;12.96;52.67;99875.53;7345491;19;20023;-75
2023/05/11 10:50:48;;;;;;;7.22;2.80;;;;;;;12.89;55.02;99870.75;7345030;19;20078;-75
2023/05/11 10:53:25;;;;;;;2.30;1.92;;;;;;;13.01;55.51;99869.81;7343473;19;20026;-76
2023/05/11 10:56:12;;;;;;;3.10;2.70;;;;;;;13.41;54.17;99865.75;7347471;19;20022;-77
2023/05/11 10:58:53;;;;;;;4.10;2.55;;;;;;;13.90;52.55;99858.22;7349059;19;20006;-74
2023/05/11 11:01:26;;;;;;;3.60;2.28;;;;;;;14.55;50.60;99842.06;7348989;19;20031;-75
2023/05/11 11:04:00;;;;;;;4.13;2.10;;;;;;;15.12;48.98;99859.53;7346376;19;20026;-73
2023/05/11 11:06:28;;;;;;;4.03;2.75;;;;;;;15.57;48.39;99839.41;7345176;19;20098;-77
2023/05/11 11:08:58;;;;;;;4.25;2.75;;;;;;;15.91;46.04;99833.69;7345170;19;20070;-76
2023/05/11 11:11:37;;;;;;;4.75;3.08;;;;;;;16.22;46.06;99837.97;7348623;19;20014;-76
2023/05/11 11:14:04;;;;;;;2.63;2.42;;;;;;;16.40;45.35;99842.63;7344131;19;20018;-76
2023/05/11 11:16:29;;;;;;;3.35;2.60;;;;;;;16.60;45.23;99825.47;7340575;19;20098;-75
2023/05/11 11:19:31;;;;;;;4.55;3.03;;;;;;;17.03;45.14;99831.25;7344250;19;20026;-75
2023/05/11 11:22:00;;;;;;;6.65;2.75;;;;;;;17.31;44.42;99831.28;7346821;19;20656;-75
2023/05/11 11:24:39;;;;;;;3.28;2.40;;;;;;;17.82;41.84;99829.94;7344459;19;20042;-71
2023/05/11 11:27:05;;;;;;;5.25;3.72;;;;;;;17.82;41.64;99830.81;7345456;19;20037;-70
2023/05/11 11:29:31;;;;;;;6.28;2.88;;;;;;;17.86;41.77;99844.81;7346133;19;20031;-72
2023/05/11 11:32:18;;;;;;;4.35;2.83;;;;;;;18.00;41.48;99852.41;7345907;19;20352;-69